Flight Track Log - Related Links

Times and Time Zones

All times are in EDT time to prevent confusion due to time zone crossing. See the EJA929 flight status page for this flight to view local times or setup timezone preferences in your user account.

Time Position Orientation Groundspeed Altitude Reporting Facility
EDT Latitude Longitude Course Direction KTS MPH feet Rate Location/Type
Sun 11:19:31 PM 35.5875 -106.1283 256° West 208 239 8,800  Level Albuquerque Center
Sun 11:20:32 PM 35.5719 -106.2061 256° West 232 267 12,300 3,885 Climbing Albuquerque Center
Sun 11:21:33 PM 35.5553 -106.2994 258° West 274 315 16,700 3,492 Climbing Albuquerque Center
Sun 11:22:34 PM 35.5381 -106.3922 257° West 278 320 19,400 2,049 Climbing Albuquerque Center
Sun 11:23:36 PM 35.5181 -106.4978 257° West 310 357 20,900 1,463 Climbing Albuquerque Center
Sun 11:24:37 PM 35.4956 -106.6122 256° West 339 390 22,400 1,463 Climbing Albuquerque Center
Sun 11:25:39 PM 35.4722 -106.7314 257° West 355 409 23,900 1,463 Climbing Albuquerque Center
Sun 11:26:40 PM 35.4489 -106.8508 257° West 361 415 25,400 1,574 Climbing Albuquerque Center
Sun 11:27:41 PM 35.4192 -106.9942 256° West 365 420 27,100 1,561 Climbing Albuquerque Center
Sun 11:28:43 PM 35.3953 -107.1167 257° West 371 427 28,600 1,366 Climbing Albuquerque Center
Sun 11:29:44 PM 35.3703 -107.2394 256° West 374 430 29,900 1,131 Climbing Albuquerque Center
Sun 11:30:45 PM 35.3436 -107.3669 256° West 383 441 30,900 976 Climbing Albuquerque Center
Sun 11:31:47 PM 35.3167 -107.4989 256° West 398 458 31,900 1,073 Climbing Albuquerque Center
Sun 11:32:48 PM 35.2506 -107.6375 240° Southwest 407 468 33,100 1,033 Climbing Albuquerque Center
Sun 11:33:49 PM 35.1950 -107.7586 241° Southwest 417 480 34,000 934 Climbing Albuquerque Center
Sun 11:34:50 PM 35.1394 -107.8794 241° Southwest 422 486 35,000 1,024 Climbing Albuquerque Center
Sun 11:35:52 PM 35.0769 -108.0228 242° Southwest 425 489 36,100 1,024 Climbing Albuquerque Center
Sun 11:36:53 PM 35.0194 -108.1475 241° Southwest 433 498 37,100 934 Climbing Albuquerque Center
Sun 11:37:54 PM 34.9861 -108.2892 254° West 451 519 38,000 1,574 Climbing Albuquerque Center
Sun 11:38:55 PM 34.9722 -108.4667 265° West 468 539 40,300 1,918 Climbing Albuquerque Center
Sun 11:39:56 PM 34.9594 -108.6117 264° West 457 526 41,900 1,328 Climbing Albuquerque Center
Sun 11:40:57 PM 34.9436 -108.7856 264° West 459 528 43,000 537 Climbing Albuquerque Center
Sun 11:41:59 PM 34.9306 -108.9408 264° West 471 542 43,000  Level Albuquerque Center
Sun 11:43:00 PM 34.9161 -109.1036 264° West 493 567 43,000  Level Albuquerque Center
Sun 11:44:02 PM 34.8975 -109.2942 263° West 504 580 43,000  Level Albuquerque Center
Sun 11:45:02 PM 34.8833 -109.4583 264° West 506 582 43,000  Level Albuquerque Center
Sun 11:46:03 PM 34.8678 -109.6256 264° West 513 590 43,000  Level Albuquerque Center
Sun 11:47:04 PM 34.8492 -109.8197 263° West 515 593 43,000  Level Albuquerque Center
Sun 11:48:06 PM 34.8344 -109.9867 264° West 516 594 43,000  Level Albuquerque Center
Sun 11:49:07 PM 34.8183 -110.1519 263° West 515 593 43,000  Level Albuquerque Center
Sun 11:50:08 PM 34.7983 -110.3425 263° West 512 589 43,000  Level Albuquerque Center
Sun 11:51:09 PM 34.7814 -110.5061 263° West 508 585 43,000  Level Albuquerque Center
Sun 11:52:10 PM 34.7592 -110.6933 262° West 504 580 43,000  Level Albuquerque Center
Sun 11:53:11 PM 34.7397 -110.8553 262° West 513 590 43,000  Level Albuquerque Center
Sun 11:54:12 PM 34.7217 -111.0236 263° West 508 585 43,000  Level Albuquerque Center
Sun 11:55:13 PM 34.7033 -111.1922 263° West 508 585 43,000  Level Albuquerque Center
Sun 11:56:14 PM 34.6839 -111.3639 262° West 512 589 43,000  Level Albuquerque Center
Sun 11:57:15 PM 34.6658 -111.5314 263° West 509 586 43,000  Level Albuquerque Center
Sun 11:58:16 PM 34.6461 -111.6983 262° West 505 581 43,000  Level Albuquerque Center
Sun 11:59:17 PM 34.6275 -111.8628 262° West 500 575 43,000  Level Albuquerque Center
Mon 12:00:18 AM 34.6044 -112.0589 262° West 495 570 43,000  Level Albuquerque Center
Mon 12:01:19 AM 34.5858 -112.2233 262° West 496 571 43,000  Level Albuquerque Center
Mon 12:02:20 AM 34.5675 -112.3714 261° West 496 571 43,000  Level Albuquerque Center
Mon 12:03:21 AM 34.5481 -112.5369 262° West 497 572 43,000  Level Albuquerque Center
Mon 12:04:22 AM 34.5281 -112.7042 262° West 500 575 43,000  Level Albuquerque Center
Mon 12:05:23 AM 34.5067 -112.8719 261° West 503 579 43,000  Level Albuquerque Center
Mon 12:06:24 AM 34.4822 -113.0742 262° West 505 581 43,000  Level Albuquerque Center
Mon 12:07:25 AM 34.4603 -113.2428 261° West 506 582 43,000  Level Albuquerque Center
Mon 12:08:26 AM 34.4378 -113.4119 261° West 509 586 43,000  Level Albuquerque Center
Mon 12:09:27 AM 34.4156 -113.5878 261° West 509 586 43,000  Level Albuquerque Center
Mon 12:10:28 AM 34.3922 -113.7608 261° West 511 588 43,000  Level Albuquerque Center
Mon 12:11:29 AM 34.3697 -113.9328 261° West 514 592 43,000  Level Albuquerque Center
Mon 12:12:30 AM 34.3464 -114.1031 261° West 513 590 43,000  Level Albuquerque Center
Mon 12:13:31 AM 34.3244 -114.2722 261° West 511 588 43,000  Level Albuquerque Center
Mon 12:14:32 AM 34.3008 -114.4442 261° West 512 589 43,000  Level Albuquerque Center
Mon 12:15:02 AM 34.2939 -114.5106 263° West 513 590 43,000  Level Los Angeles Center
Mon 12:16:03 AM 34.2667 -114.7142 261° West 513 590 43,000 -49 Level Los Angeles Center
Mon 12:17:05 AM 34.2417 -114.8844 260° West 516 594 42,900 -976 Descending Los Angeles Center
Mon 12:18:06 AM 34.2175 -115.0522 260° West 510 587 41,000 -1,902 Descending Los Angeles Center
Mon 12:19:08 AM 34.1942 -115.2206 261° West 510 587 39,000 -1,951 Descending Los Angeles Center
Mon 12:20:09 AM 34.1689 -115.3875 260° West 509 586 37,000 -1,951 Descending Los Angeles Center
Mon 12:21:11 AM 34.1456 -115.5519 260° West 502 578 35,000 -1,951 Descending Los Angeles Center
Mon 12:22:12 AM 34.1211 -115.7114 260° West 489 563 33,000 -1,951 Descending Los Angeles Center
Mon 12:23:14 AM 34.0994 -115.8647 260° West 471 542 31,000 -2,146 Descending Los Angeles Center
Mon 12:24:15 AM 34.0725 -116.0403 260° West 450 518 28,600 -2,049 Descending Los Angeles Center
Mon 12:25:17 AM 34.0514 -116.1803 260° West 430 495 26,800 -1,659 Descending Los Angeles Center
Mon 12:26:18 AM 34.0317 -116.3153 260° West 415 478 25,200 -1,659 Descending Los Angeles Center
Mon 12:27:20 AM 34.0111 -116.4422 259° West 392 451 23,400 -1,756 Descending Los Angeles Center
Mon 12:28:21 AM 33.9989 -116.5636 263° West 368 423 21,600 -1,610 Descending Los Angeles Center
Mon 12:29:23 AM 33.9892 -116.6828 264° West 361 415 20,100 -1,324 Descending Los Angeles Center
Mon 12:30:37 AM 33.9806 -116.7997 265° West 354 407 18,600 -1,500 Descending Los Angeles Center
Mon 12:31:15 AM 33.9667 -116.9167 262° West 342 394 17,300 -978 Descending Southern California TRACON
Mon 12:32:09 AM 33.9667 -117.0167 270° West 347 399 17,100 -105 Descending Southern California TRACON
Mon 12:33:09 AM 33.9500 -117.1500 261° West 371 427 17,100  Level Southern California TRACON
Mon 12:34:15 AM 33.9333 -117.2833 261° West 366 421 17,100 -619 Level Southern California TRACON
Mon 12:35:15 AM 33.9333 -117.3833 270° West 327 376 15,800 -1,537 Descending Southern California TRACON
Mon 12:36:16 AM 33.9667 -117.5000 289° West 327 376 14,000 -1,500 Descending Southern California TRACON
Mon 12:37:15 AM 34.0167 -117.6000 301° West 326 375 12,800 -1,400 Descending Southern California TRACON
Mon 12:38:16 AM 34.0000 -117.7000 259° West 321 369 11,200 -1,587 Descending Southern California TRACON
Mon 12:39:16 AM 34.0000 -117.8000 270° West 300 345 9,600 -1,526 Descending Southern California TRACON
Mon 12:40:10 AM 33.9833 -117.8833 256° West 247 284 8,300 -1,316 Descending Southern California TRACON
Mon 12:41:10 AM 33.9833 -117.9500 270° West 215 247 7,100 -1,143 Descending Southern California TRACON
Mon 12:42:16 AM 33.9667 -118.0333 256° West 208 239 5,900 -1,095 Descending Southern California TRACON
Mon 12:43:16 AM 33.9667 -118.1000 270° West 200 230 4,800 -1,091 Descending Southern California TRACON
Mon 12:43:55 AM 33.9642 -118.1267 264° West 201 231 4,100 -1,010 Descending Los Angeles Center
Mon 12:44:57 AM 33.9567 -118.1933 262° West 173 199 3,100 -878 Descending Los Angeles Center
Mon 12:45:58 AM 33.9514 -118.2453 263° West 161 185 2,300 -780 Descending Los Angeles Center
Mon 12:47:00 AM 33.9458 -118.2992 263° West 162 186 1,500 -732 Descending Los Angeles Center
Mon 12:48:01 AM 33.9417 -118.3428 263° West 146 168 800 -683 Descending Los Angeles Center
Mon 12:49:03 AM 33.9383 -118.3842 264° West 134 154 100 -677 Descending Los Angeles Center
Mon 12:51:00 AM 33.9333 -118.4000 270° West  Level FlightAware Approximate

Login

Don't have an account? Register now (free) for customized features, flight alerts, and more!